TimeAKST,TemperatureF,Dew PointF,Humidity,Sea Level PressureIn,VisibilityMPH,Wind Direction,Wind SpeedMPH,Gust SpeedMPH,PrecipitationIn,Events,Conditions,WindDirDegrees,DateUTC
12:56 AM,-13.0,-17.9,79,30.14,-9999.0,NE,12.7,-,N/A,,Mostly Cloudy,50,2013-01-09 09:56:00
1:25 AM,-13.0,-18.4,77,30.13,-9999.0,ENE,12.7,-,N/A,,Clear,60,2013-01-09 10:25:00
1:56 AM,-13.9,-19.8,75,30.16,-9999.0,ENE,8.1,-,N/A,,Clear,60,2013-01-09 10:56:00
2:56 AM,-14.8,-20.2,77,30.15,-9999.0,NE,9.2,-,N/A,,Clear,50,2013-01-09 11:56:00
3:56 AM,-15.0,-19.8,79,30.16,-9999.0,NE,9.2,-,N/A,,Clear,50,2013-01-09 12:56:00
4:56 AM,-13.9,-18.9,78,30.16,-9999.0,ENE,10.4,-,N/A,,Mostly Cloudy,60,2013-01-09 13:56:00
5:56 AM,-14.8,-20.2,77,30.15,-9999.0,ENE,10.4,-,N/A,,Clear,70,2013-01-09 14:56:00
6:56 AM,-15.9,-22.0,74,30.16,-9999.0,ENE,6.9,-,N/A,,Clear,70,2013-01-09 15:56:00
7:56 AM,-15.9,-22.0,74,30.15,-9999.0,NE,9.2,-,N/A,,Clear,40,2013-01-09 16:56:00
8:56 AM,-16.6,-23.8,70,30.14,-9999.0,NE,13.8,-,N/A,,Clear,50,2013-01-09 17:56:00
9:56 AM,-17.9,-24.0,74,30.15,-9999.0,NE,8.1,-,N/A,,Clear,50,2013-01-09 18:56:00
10:56 AM,-17.0,-22.9,74,30.15,-9999.0,ENE,12.7,-,N/A,,Clear,70,2013-01-09 19:56:00
11:56 AM,-18.4,-23.8,76,30.14,-9999.0,ENE,12.7,-,N/A,,Clear,70,2013-01-09 20:56:00
12:56 PM,-18.9,-24.9,74,30.16,-9999.0,ENE,8.1,-,N/A,,Clear,60,2013-01-09 21:56:00
1:56 PM,-18.9,-26.0,70,30.14,-9999.0,ENE,9.2,-,N/A,,Clear,60,2013-01-09 22:56:00
2:56 PM,-20.2,-25.6,76,30.12,-9999.0,Calm,Calm,-,N/A,,Clear,0,2013-01-09 23:56:00
3:56 PM,-19.8,-26.0,73,30.11,-9999.0,NE,10.4,-,N/A,,Clear,50,2013-01-10 00:56:00
4:56 PM,-19.8,-26.0,73,30.10,-9999.0,ENE,10.4,-,N/A,,Clear,70,2013-01-10 01:56:00
5:56 PM,-20.2,-25.6,76,30.06,-9999.0,NE,18.4,-,N/A,,Clear,40,2013-01-10 02:56:00
6:56 PM,-18.9,-24.9,74,30.06,-9999.0,NE,17.3,-,N/A,,Clear,40,2013-01-10 03:56:00
7:56 PM,-19.8,-26.0,73,30.06,-9999.0,NE,11.5,-,N/A,,Clear,50,2013-01-10 04:56:00
8:56 PM,-20.2,-25.6,76,30.03,-9999.0,NE,16.1,-,N/A,,Clear,50,2013-01-10 05:56:00
9:56 PM,-19.8,-26.0,73,30.03,-9999.0,NE,15.0,-,N/A,,Clear,50,2013-01-10 06:56:00
10:56 PM,-18.9,-26.0,70,30.02,-9999.0,NE,17.3,-,N/A,,Clear,50,2013-01-10 07:56:00
11:56 PM,-18.4,-25.6,70,30.02,-9999.0,ENE,17.3,-,N/A,,Clear,60,2013-01-10 08:56:00